Time;durP1;ratioP1;P1;durP2;ratioP2;P2;SDS_P1;SDS_P2;PMS_P1;PMS_P2;Temp;Humidity;BMP_temperature;BMP_pressure;BME280_temperature;BME280_humidity;BME280_pressure;Samples;Min_cycle;Max_cycle;Signal;HPM_P1;HPM_P2
2022/11/22 00:00:37;;;;;;;31.38;16.25;;;3.10;99.90;;;;;;6216365;23;20052;-80
2022/11/22 00:03:02;;;;;;;32.38;16.02;;;3.10;99.90;;;;;;6243473;23;20012;-81
2022/11/22 00:05:28;;;;;;;29.42;16.15;;;3.10;99.90;;;;;;6215009;23;20082;-81
2022/11/22 00:07:54;;;;;;;29.40;15.35;;;3.10;99.90;;;;;;6243366;23;20624;-81
2022/11/22 00:10:20;;;;;;;34.25;16.25;;;3.10;99.90;;;;;;6215960;23;20046;-81
2022/11/22 00:12:45;;;;;;;32.35;16.20;;;3.10;99.90;;;;;;6216020;23;20004;-80
2022/11/22 00:15:11;;;;;;;29.45;15.73;;;3.10;99.90;;;;;;6243175;23;20012;-81
2022/11/22 00:17:37;;;;;;;33.75;16.88;;;3.10;99.90;;;;;;6243667;23;20020;-81
2022/11/22 00:20:05;;;;;;;35.40;15.73;;;3.10;99.90;;;;;;6215235;23;20396;-81
2022/11/22 00:22:31;;;;;;;28.65;16.45;;;3.10;99.90;;;;;;6190743;23;20087;-81
2022/11/22 00:24:57;;;;;;;30.90;15.60;;;3.10;99.90;;;;;;6190639;23;20173;-81
2022/11/22 00:27:23;;;;;;;30.63;15.95;;;3.10;99.90;;;;;;6216550;23;20018;-81
2022/11/22 00:29:48;;;;;;;30.25;15.65;;;3.10;99.90;;;;;;6242557;23;20016;-81
2022/11/22 00:32:14;;;;;;;31.17;16.52;;;3.10;99.90;;;;;;6242828;23;20012;-81
2022/11/22 00:34:40;;;;;;;33.28;16.70;;;3.10;99.90;;;;;;6215299;23;20062;-81
2022/11/22 00:37:05;;;;;;;31.33;15.63;;;3.10;99.90;;;;;;6216421;23;20083;-81
2022/11/22 00:39:31;;;;;;;28.95;15.68;;;3.00;99.90;;;;;;6214494;23;20430;-81
2022/11/22 00:41:57;;;;;;;33.72;16.40;;;3.00;99.90;;;;;;6214154;23;20046;-81
2022/11/22 00:44:23;;;;;;;39.72;17.08;;;3.00;99.90;;;;;;6215525;23;20330;-81
2022/11/22 00:46:48;;;;;;;33.80;16.23;;;3.00;99.90;;;;;;6215939;23;20015;-81
2022/11/22 00:49:14;;;;;;;31.08;17.48;;;3.00;99.90;;;;;;6214024;23;20024;-81
2022/11/22 00:51:40;;;;;;;30.55;16.25;;;3.00;99.90;;;;;;6215728;23;20092;-80
2022/11/22 00:54:06;;;;;;;33.95;17.27;;;3.00;99.90;;;;;;6215783;23;20070;-80
2022/11/22 00:56:32;;;;;;;34.55;17.27;;;3.00;99.90;;;;;;6215144;23;20055;-81
2022/11/22 00:58:58;;;;;;;34.38;17.50;;;3.00;99.90;;;;;;6215916;23;20449;-81
2022/11/22 01:01:24;;;;;;;33.50;17.30;;;3.00;99.90;;;;;;6215541;23;20019;-80
2022/11/22 01:03:50;;;;;;;37.17;17.60;;;2.90;99.90;;;;;;6214231;23;20396;-81
2022/11/22 01:06:15;;;;;;;32.63;16.13;;;2.90;99.90;;;;;;6215302;23;20016;-81
2022/11/22 01:08:41;;;;;;;35.10;17.08;;;2.90;99.90;;;;;;6242582;23;20020;-81
2022/11/22 01:11:07;;;;;;;35.92;18.80;;;2.90;99.90;;;;;;6242335;23;20008;-81
2022/11/22 01:13:33;;;;;;;31.92;16.90;;;2.90;99.90;;;;;;6241421;23;20066;-80
2022/11/22 01:16:05;;;;;;;37.88;17.60;;;2.90;99.90;;;;;;6241937;23;20428;-81
2022/11/22 01:18:32;;;;;;;36.25;17.67;;;2.90;99.90;;;;;;6215048;23;20051;-81
2022/11/22 01:20:58;;;;;;;33.13;17.58;;;2.90;99.90;;;;;;6215055;23;20051;-81
2022/11/22 01:23:23;;;;;;;34.90;17.00;;;2.90;99.90;;;;;;6215065;23;20321;-80
2022/11/22 01:25:49;;;;;;;35.75;17.63;;;2.90;99.90;;;;;;6242035;23;20425;-81
2022/11/22 01:28:15;;;;;;;34.13;17.65;;;2.90;99.90;;;;;;6214820;23;20037;-81
2022/11/22 01:30:41;;;;;;;35.90;17.55;;;2.90;99.90;;;;;;6215164;23;20019;-81
2022/11/22 01:33:08;;;;;;;38.90;18.20;;;2.90;99.90;;;;;;6241838;23;20111;-81
2022/11/22 01:35:34;;;;;;;41.03;19.83;;;2.90;99.90;;;;;;6214503;23;20019;-81
2022/11/22 01:37:59;;;;;;;41.30;20.00;;;2.90;99.90;;;;;;6190134;23;20012;-81
2022/11/22 01:40:25;;;;;;;37.65;19.70;;;2.90;99.90;;;;;;6242475;23;20008;-80
2022/11/22 01:42:53;;;;;;;40.08;18.58;;;2.90;99.90;;;;;;6241662;23;20042;-80
2022/11/22 01:45:28;;;;;;;39.92;19.65;;;2.90;99.90;;;;;;6215347;23;20019;-80
2022/11/22 01:47:57;;;;;;;38.25;18.63;;;2.90;99.90;;;;;;6214636;23;20016;-80
2022/11/22 01:50:22;;;;;;;39.53;19.02;;;2.90;99.90;;;;;;6241863;23;20016;-81
2022/11/22 01:52:48;;;;;;;39.70;20.48;;;3.00;99.90;;;;;;6215156;23;20018;-81
2022/11/22 01:55:14;;;;;;;37.00;18.80;;;2.90;99.90;;;;;;6215295;23;20452;-80
2022/11/22 01:57:42;;;;;;;41.00;19.70;;;2.90;99.90;;;;;;6241816;23;20066;-79
2022/11/22 02:00:13;;;;;;;40.10;19.52;;;3.00;99.90;;;;;;6214815;23;20387;-80
2022/11/22 02:02:39;;;;;;;38.67;19.80;;;3.00;99.90;;;;;;6214263;23;20448;-79
2022/11/22 02:05:09;;;;;;;40.85;21.00;;;3.00;99.90;;;;;;6214054;23;20027;-80
2022/11/22 02:07:46;;;;;;;42.00;19.67;;;3.00;99.90;;;;;;6239802;23;20012;-79
2022/11/22 02:10:13;;;;;;;42.15;19.13;;;3.00;99.90;;;;;;6213593;23;20146;-79
2022/11/22 02:12:39;;;;;;;42.72;20.83;;;3.00;99.90;;;;;;6241495;23;20015;-79
2022/11/22 02:15:06;;;;;;;40.90;20.35;;;3.00;99.90;;;;;;6214952;23;20380;-79
2022/11/22 02:17:33;;;;;;;37.20;19.10;;;3.00;99.90;;;;;;6213567;23;20051;-79
2022/11/22 02:19:58;;;;;;;41.22;20.48;;;3.00;99.90;;;;;;6242595;23;20004;-79
2022/11/22 02:22:39;;;;;;;41.20;20.73;;;3.00;99.90;;;;;;6240537;23;20468;-80
2022/11/22 02:25:18;;;;;;;40.30;19.08;;;3.00;99.90;;;;;;6214313;23;20098;-79
2022/11/22 02:27:44;;;;;;;37.05;19.60;;;3.10;99.90;;;;;;6214134;23;20012;-80
2022/11/22 02:30:10;;;;;;;37.17;19.25;;;3.10;99.90;;;;;;6213747;23;20099;-80
2022/11/22 02:32:36;;;;;;;38.78;20.50;;;3.10;99.90;;;;;;6213908;23;20073;-79
2022/11/22 02:35:15;;;;;;;41.75;19.60;;;3.10;99.90;;;;;;6240487;23;20531;-80
2022/11/22 02:37:40;;;;;;;38.70;19.58;;;3.10;99.90;;;;;;6241877;23;20047;-80
2022/11/22 02:40:12;;;;;;;37.90;19.13;;;3.10;99.90;;;;;;6241597;23;20070;-79
2022/11/22 02:42:39;;;;;;;36.75;19.38;;;3.10;99.90;;;;;;6213357;23;20020;-80
2022/11/22 02:45:05;;;;;;;36.13;19.92;;;3.10;99.90;;;;;;6213515;23;20028;-80
2022/11/22 02:47:30;;;;;;;38.95;19.85;;;3.10;99.90;;;;;;6214813;23;20476;-80
2022/11/22 02:49:56;;;;;;;40.75;20.05;;;3.20;99.90;;;;;;6214602;23;20455;-79
2022/11/22 02:52:21;;;;;;;39.55;19.85;;;3.20;99.90;;;;;;6213699;23;20016;-79
2022/11/22 02:54:47;;;;;;;42.35;19.77;;;3.20;99.90;;;;;;6189471;23;20020;-80
2022/11/22 02:57:13;;;;;;;36.97;19.10;;;3.20;99.90;;;;;;6241617;23;20023;-80
2022/11/22 02:59:38;;;;;;;42.00;20.15;;;3.20;99.90;;;;;;6212440;23;20024;-79
2022/11/22 03:02:04;;;;;;;36.63;19.65;;;3.20;99.90;;;;;;6214654;23;20015;-80
2022/11/22 03:04:30;;;;;;;39.20;19.27;;;3.20;99.90;;;;;;6213559;23;20069;-79
2022/11/22 03:06:57;;;;;;;38.17;19.27;;;3.30;99.90;;;;;;6241027;23;20012;-80
2022/11/22 03:09:25;;;;;;;38.08;19.33;;;3.30;99.90;;;;;;6241957;23;20035;-79
2022/11/22 03:11:51;;;;;;;35.70;18.52;;;3.30;99.90;;;;;;6239980;23;20012;-79
2022/11/22 03:14:17;;;;;;;39.05;18.48;;;3.30;99.90;;;;;;6240469;23;20024;-80
2022/11/22 03:16:44;;;;;;;39.22;19.48;;;3.30;99.90;;;;;;6241631;23;20034;-79
2022/11/22 03:19:10;;;;;;;39.60;18.75;;;3.30;99.90;;;;;;6214181;23;20026;-79
2022/11/22 03:21:37;;;;;;;38.40;18.83;;;3.30;99.90;;;;;;6240563;23;20448;-80
2022/11/22 03:24:03;;;;;;;39.05;18.42;;;3.30;99.90;;;;;;6214333;23;20012;-80
2022/11/22 03:26:29;;;;;;;36.15;18.88;;;3.40;99.90;;;;;;6241185;23;20091;-80
2022/11/22 03:28:55;;;;;;;38.55;19.00;;;3.40;99.90;;;;;;6212858;23;20121;-80
2022/11/22 03:31:20;;;;;;;34.13;18.27;;;3.40;99.90;;;;;;6240888;23;20012;-80
2022/11/22 03:33:46;;;;;;;36.67;18.88;;;3.40;99.90;;;;;;6214594;23;20016;-80
2022/11/22 03:36:12;;;;;;;34.92;18.00;;;3.40;99.90;;;;;;6239977;23;20082;-80
2022/11/22 03:38:37;;;;;;;37.83;18.92;;;3.40;99.90;;;;;;6241137;23;20070;-79
2022/11/22 03:41:03;;;;;;;35.53;18.05;;;3.40;99.90;;;;;;6241294;23;20047;-80
2022/11/22 03:43:29;;;;;;;37.00;18.20;;;3.40;99.90;;;;;;6240966;23;20440;-80
2022/11/22 03:45:54;;;;;;;35.60;18.92;;;3.40;99.90;;;;;;6241343;23;20016;-79
2022/11/22 03:48:20;;;;;;;35.67;17.67;;;3.40;99.90;;;;;;6240585;23;20272;-80
2022/11/22 03:50:46;;;;;;;33.83;18.70;;;3.40;99.90;;;;;;6240765;23;20008;-79
2022/11/22 03:53:11;;;;;;;33.13;17.15;;;3.50;99.90;;;;;;6214214;23;20016;-79
2022/11/22 03:55:37;;;;;;;34.38;16.73;;;3.50;99.90;;;;;;6213779;23;20483;-80
2022/11/22 03:58:03;;;;;;;32.55;17.52;;;3.50;99.90;;;;;;6213204;23;20074;-80
2022/11/22 04:00:29;;;;;;;34.53;18.08;;;3.50;99.90;;;;;;6213643;23;20020;-80
2022/11/22 04:02:55;;;;;;;34.03;18.30;;;3.60;99.90;;;;;;6241625;23;20077;-80
2022/11/22 04:05:21;;;;;;;36.95;19.73;;;3.50;99.90;;;;;;6241127;23;20016;-80
2022/11/22 04:07:47;;;;;;;32.67;17.23;;;3.50;99.90;;;;;;6241773;23;20005;-80
2022/11/22 04:10:13;;;;;;;35.25;17.08;;;3.60;99.90;;;;;;6213732;23;20023;-80
2022/11/22 04:12:38;;;;;;;34.65;17.90;;;3.50;99.90;;;;;;6214333;23;20012;-80
2022/11/22 04:15:07;;;;;;;38.65;18.30;;;3.50;99.90;;;;;;6240816;23;20444;-80
2022/11/22 04:17:43;;;;;;;34.38;17.20;;;3.60;99.90;;;;;;6241054;23;20367;-79
2022/11/22 04:23:16;;;;;;;32.77;17.40;;;3.60;99.90;;;;;;6214615;23;20016;-80
2022/11/22 04:25:44;;;;;;;31.25;16.90;;;3.50;99.90;;;;;;6240717;23;20020;-80
2022/11/22 04:28:12;;;;;;;32.55;17.63;;;3.60;99.90;;;;;;6241058;23;20012;-80
2022/11/22 04:33:22;;;;;;;36.45;17.98;;;3.60;99.90;;;;;;6240908;23;20043;-80
2022/11/22 04:35:49;;;;;;;29.77;17.00;;;3.60;99.90;;;;;;6240425;23;20012;-80
2022/11/22 04:38:15;;;;;;;34.38;17.98;;;3.70;99.90;;;;;;6213161;23;20027;-80
2022/11/22 04:40:41;;;;;;;33.22;17.00;;;3.60;99.90;;;;;;6213498;23;20475;-80
2022/11/22 04:45:57;;;;;;;33.72;17.90;;;3.70;99.90;;;;;;6242015;23;20020;-79
2022/11/22 04:48:23;;;;;;;37.53;17.30;;;3.70;99.90;;;;;;6243054;23;20012;-80
2022/11/22 04:53:32;;;;;;;29.23;15.88;;;3.70;99.90;;;;;;6215973;23;20020;-79
2022/11/22 04:55:58;;;;;;;34.40;18.08;;;3.80;99.90;;;;;;6214726;23;20016;-80
2022/11/22 04:58:24;;;;;;;36.90;17.60;;;3.80;99.90;;;;;;6215401;23;20095;-80
2022/11/22 05:00:50;;;;;;;31.17;16.95;;;3.80;99.90;;;;;;6242999;23;20083;-80
2022/11/22 05:03:16;;;;;;;31.70;17.15;;;3.80;99.90;;;;;;6215768;23;20052;-80
2022/11/22 05:05:43;;;;;;;32.95;16.63;;;3.80;99.90;;;;;;6215167;23;20016;-80
2022/11/22 05:08:10;;;;;;;32.25;16.67;;;3.80;99.90;;;;;;6241113;23;20318;-80
2022/11/22 05:13:26;;;;;;;30.10;17.23;;;3.80;99.90;;;;;;6241977;23;20020;-79
2022/11/22 05:15:52;;;;;;;29.65;16.63;;;3.80;99.90;;;;;;6214470;23;20020;-80
2022/11/22 05:18:18;;;;;;;31.73;16.58;;;3.90;99.90;;;;;;6214994;23;20344;-79
2022/11/22 05:20:44;;;;;;;30.58;17.92;;;3.90;99.90;;;;;;6214903;23;20058;-80
2022/11/22 05:25:54;;;;;;;31.02;16.63;;;3.90;99.90;;;;;;6214317;23;20059;-80
2022/11/22 05:28:20;;;;;;;38.17;18.35;;;3.90;99.90;;;;;;6214544;23;20314;-79
2022/11/22 05:30:46;;;;;;;35.40;18.55;;;3.90;99.90;;;;;;6213677;23;20456;-80
2022/11/22 05:33:11;;;;;;;38.08;19.85;;;3.90;99.90;;;;;;6214621;23;20016;-79
2022/11/22 05:35:37;;;;;;;31.48;18.85;;;3.90;99.90;;;;;;6214490;23;20016;-79
2022/11/22 05:38:02;;;;;;;33.75;17.85;;;3.90;99.90;;;;;;6214584;23;20020;-79
2022/11/22 05:40:28;;;;;;;32.80;16.70;;;3.90;99.90;;;;;;6240374;23;20046;-80
2022/11/22 05:42:53;;;;;;;32.47;18.20;;;3.90;99.90;;;;;;6214908;23;20023;-80
2022/11/22 05:45:19;;;;;;;37.38;18.17;;;4.00;99.90;;;;;;6214190;23;20024;-80
2022/11/22 05:47:45;;;;;;;34.28;17.85;;;4.00;99.90;;;;;;6215388;23;20048;-78
2022/11/22 05:50:11;;;;;;;38.70;18.20;;;4.00;99.90;;;;;;6241686;23;20016;-79
2022/11/22 05:52:36;;;;;;;34.03;17.92;;;4.00;99.90;;;;;;6213678;23;20008;-80
2022/11/22 05:55:03;;;;;;;31.92;18.02;;;4.00;99.90;;;;;;6243259;23;20097;-80
2022/11/22 05:57:30;;;;;;;28.92;17.10;;;4.00;99.90;;;;;;6216814;23;20039;-80
2022/11/22 05:59:56;;;;;;;32.50;16.02;;;4.00;99.90;;;;;;6217350;23;20012;-81
2022/11/22 06:02:22;;;;;;;32.22;17.45;;;4.00;99.90;;;;;;6192719;23;20024;-81
2022/11/22 06:04:47;;;;;;;33.85;17.83;;;4.00;99.90;;;;;;6217685;23;20023;-81
2022/11/22 06:07:13;;;;;;;34.15;17.48;;;4.00;99.90;;;;;;6243611;23;20019;-81
2022/11/22 06:09:39;;;;;;;34.83;18.67;;;4.10;99.90;;;;;;6242897;23;20074;-82
2022/11/22 06:12:05;;;;;;;31.92;17.33;;;4.10;99.90;;;;;;6217066;23;20110;-80
2022/11/22 06:14:30;;;;;;;32.72;18.52;;;4.10;99.90;;;;;;6217083;23;20520;-81
2022/11/22 06:16:56;;;;;;;34.88;17.63;;;4.10;99.90;;;;;;6244920;23;20029;-81
2022/11/22 06:19:22;;;;;;;30.20;17.35;;;4.10;99.90;;;;;;6215309;23;20028;-81
2022/11/22 06:21:47;;;;;;;34.92;18.90;;;3.60;99.90;;;;;;6242751;23;20313;-82
2022/11/22 06:24:13;;;;;;;31.38;17.50;;;4.10;99.90;;;;;;6215465;23;20429;-81
2022/11/22 06:26:38;;;;;;;36.15;18.38;;;4.10;99.90;;;;;;6242701;23;20066;-81
2022/11/22 06:29:05;;;;;;;34.13;17.60;;;4.10;99.90;;;;;;6242516;23;20016;-81
2022/11/22 06:31:30;;;;;;;39.83;18.33;;;3.80;99.90;;;;;;6216032;23;20012;-81
2022/11/22 06:33:58;;;;;;;34.65;17.83;;;4.20;99.90;;;;;;6242476;23;20323;-82
2022/11/22 06:36:26;;;;;;;33.17;18.63;;;4.50;99.90;;;;;;6242161;23;20031;-81
2022/11/22 06:38:52;;;;;;;33.70;17.88;;;4.20;99.90;;;;;;6216030;23;20023;-81
2022/11/22 06:41:20;;;;;;;34.15;18.02;;;4.20;99.90;;;;;;6243463;23;20387;-82
2022/11/22 06:43:47;;;;;;;33.60;18.83;;;4.20;99.90;;;;;;6243627;23;20038;-83
2022/11/22 06:46:14;;;;;;;37.28;18.20;;;4.20;99.90;;;;;;6190585;23;20101;-83
2022/11/22 06:48:41;;;;;;;36.80;18.75;;;4.20;99.90;;;;;;6243938;23;20320;-82
2022/11/22 06:51:24;;;;;;;37.50;19.00;;;4.20;99.90;;;;;;6216236;23;20379;-81
2022/11/22 06:53:54;;;;;;;39.33;18.80;;;4.30;99.90;;;;;;6214270;23;20024;-82
2022/11/22 06:56:29;;;;;;;39.00;19.15;;;4.30;99.90;;;;;;6190555;23;20091;-82
2022/11/22 06:58:55;;;;;;;34.03;17.13;;;4.30;99.90;;;;;;6242293;23;20031;-81
2022/11/22 07:01:26;;;;;;;31.63;17.35;;;4.30;99.90;;;;;;6243666;23;20087;-82
2022/11/22 07:03:56;;;;;;;34.17;17.60;;;4.30;99.90;;;;;;6191286;23;20047;-82
2022/11/22 07:06:28;;;;;;;37.33;18.55;;;4.30;99.90;;;;;;6189712;23;20082;-81
2022/11/22 07:08:54;;;;;;;34.03;18.17;;;4.30;99.90;;;;;;6213741;23;20011;-81
2022/11/22 07:11:24;;;;;;;38.53;17.90;;;4.40;99.90;;;;;;6242211;23;20020;-82
2022/11/22 07:13:50;;;;;;;35.85;17.40;;;4.40;99.90;;;;;;6214409;23;20019;-82
2022/11/22 07:16:18;;;;;;;35.67;18.88;;;4.40;99.90;;;;;;6242566;23;20023;-81
2022/11/22 07:18:44;;;;;;;36.28;19.35;;;4.70;99.90;;;;;;6242500;23;20020;-82
2022/11/22 07:21:11;;;;;;;42.13;20.00;;;4.40;99.90;;;;;;6214440;23;20016;-82
2022/11/22 07:23:38;;;;;;;35.70;17.92;;;4.40;99.90;;;;;;6241419;23;20020;-82
2022/11/22 07:26:04;;;;;;;37.22;18.35;;;4.40;99.90;;;;;;6216951;23;20405;-82
2022/11/22 07:28:30;;;;;;;35.95;18.65;;;4.50;99.90;;;;;;6242002;23;20084;-82
2022/11/22 07:31:00;;;;;;;33.50;18.15;;;4.50;99.90;;;;;;6242212;23;20435;-82
2022/11/22 07:33:26;;;;;;;34.13;18.00;;;4.50;99.90;;;;;;6242155;23;20019;-83
2022/11/22 07:35:52;;;;;;;30.27;17.30;;;4.50;99.90;;;;;;6213089;23;20350;-82
2022/11/22 07:38:17;;;;;;;34.42;16.95;;;4.50;99.90;;;;;;6189059;23;20103;-82
2022/11/22 07:40:43;;;;;;;31.85;15.55;;;4.60;99.90;;;;;;6214100;23;20020;-81
2022/11/22 07:43:09;;;;;;;34.53;17.38;;;4.60;99.90;;;;;;6241405;23;20050;-81
2022/11/22 07:45:34;;;;;;;30.70;13.50;;;4.50;99.90;;;;;;6240341;23;20366;-84
2022/11/22 07:48:00;;;;;;;29.55;13.40;;;4.60;99.90;;;;;;6214773;23;20035;-83
2022/11/22 07:50:27;;;;;;;33.60;14.73;;;4.70;99.90;;;;;;6211696;23;20211;-81
2022/11/22 07:52:57;;;;;;;26.73;12.32;;;4.80;99.90;;;;;;6238863;23;20012;-82
2022/11/22 07:55:24;;;;;;;26.35;11.43;;;4.90;99.90;;;;;;6239414;23;20023;-81
2022/11/22 07:57:51;;;;;;;29.23;11.93;;;5.00;99.90;;;;;;6212818;23;20020;-81
2022/11/22 08:00:17;;;;;;;25.50;10.20;;;5.00;99.90;;;;;;6186767;23;20008;-82
2022/11/22 08:02:43;;;;;;;26.40;10.75;;;5.10;99.90;;;;;;6212955;23;20016;-82
2022/11/22 08:05:09;;;;;;;30.45;11.05;;;5.10;99.90;;;;;;6238177;23;20012;-82
2022/11/22 08:07:34;;;;;;;25.67;10.02;;;5.20;99.90;;;;;;6211169;23;20101;-81
2022/11/22 08:10:00;;;;;;;22.10;8.98;;;5.20;99.90;;;;;;6238256;23;20051;-82
2022/11/22 08:12:25;;;;;;;21.65;8.05;;;5.20;99.90;;;;;;6238448;23;20042;-82
2022/11/22 08:14:51;;;;;;;23.40;8.25;;;5.30;99.90;;;;;;6239681;23;20506;-82
2022/11/22 08:17:17;;;;;;;19.63;8.07;;;5.30;99.90;;;;;;6242253;23;20036;-82
2022/11/22 08:19:42;;;;;;;19.92;7.55;;;5.30;99.90;;;;;;6214781;23;20016;-81
2022/11/22 08:22:08;;;;;;;14.02;6.95;;;5.30;99.90;;;;;;6215437;23;20015;-81
2022/11/22 08:24:33;;;;;;;16.48;7.53;;;5.30;99.90;;;;;;6241993;23;20019;-82
2022/11/22 08:26:59;;;;;;;19.38;7.32;;;5.30;99.90;;;;;;6215409;23;20016;-82
2022/11/22 08:29:24;;;;;;;19.05;6.60;;;5.30;99.90;;;;;;6215281;23;20066;-82
2022/11/22 08:31:50;;;;;;;18.30;7.13;;;5.30;99.90;;;;;;6241643;23;20016;-82
2022/11/22 08:34:15;;;;;;;20.25;6.80;;;5.30;99.90;;;;;;6242202;23;20012;-81
2022/11/22 08:36:41;;;;;;;22.13;7.70;;;5.30;99.90;;;;;;6242618;23;20020;-81
2022/11/22 08:39:07;;;;;;;19.63;6.82;;;5.30;99.90;;;;;;6242485;23;20016;-82
2022/11/22 08:41:32;;;;;;;31.98;8.27;;;5.30;99.90;;;;;;6242514;23;20008;-81
2022/11/22 08:43:58;;;;;;;19.23;6.63;;;5.30;99.90;;;;;;6242383;23;20086;-81
2022/11/22 08:46:23;;;;;;;19.63;6.15;;;5.30;99.90;;;;;;6242237;23;20028;-82
2022/11/22 08:48:52;;;;;;;16.42;5.63;;;5.40;99.90;;;;;;6241733;23;20302;-82
2022/11/22 08:51:18;;;;;;;15.82;5.50;;;5.30;99.90;;;;;;6242494;23;20061;-82
2022/11/22 08:53:43;;;;;;;20.65;5.80;;;5.30;99.90;;;;;;6241998;23;20122;-81
2022/11/22 08:56:14;;;;;;;18.85;7.22;;;5.30;99.90;;;;;;6241541;23;20027;-81
2022/11/22 08:58:40;;;;;;;17.58;5.80;;;5.30;99.90;;;;;;6242054;23;20012;-82
2022/11/22 09:01:12;;;;;;;24.02;5.53;;;5.30;99.90;;;;;;6241910;23;20012;-82
2022/11/22 09:03:39;;;;;;;17.88;5.50;;;5.30;99.90;;;;;;6241878;23;20047;-82
2022/11/22 09:06:07;;;;;;;16.05;5.60;;;5.30;99.90;;;;;;6241967;23;20078;-81
2022/11/22 09:08:34;;;;;;;11.40;4.53;;;5.30;99.90;;;;;;6241950;23;20510;-82
2022/11/22 09:11:00;;;;;;;14.75;5.22;;;5.40;99.90;;;;;;6241867;23;20023;-81
2022/11/22 09:13:27;;;;;;;14.40;4.97;;;5.40;99.90;;;;;;6241738;23;20012;-82
2022/11/22 09:15:52;;;;;;;18.55;5.80;;;5.50;99.90;;;;;;6241252;23;20142;-82
2022/11/22 09:18:18;;;;;;;15.82;5.78;;;5.50;99.90;;;;;;6241729;23;20048;-81
2022/11/22 09:20:44;;;;;;;18.13;5.88;;;5.50;99.90;;;;;;6242138;23;20437;-82
2022/11/22 09:23:09;;;;;;;16.85;4.80;;;5.60;99.90;;;;;;6241795;23;20105;-82
2022/11/22 09:25:35;;;;;;;17.30;4.78;;;5.60;99.90;;;;;;6241825;23;20012;-82
2022/11/22 09:28:03;;;;;;;14.38;4.28;;;5.70;99.90;;;;;;6241148;23;20502;-82
2022/11/22 09:30:30;;;;;;;9.32;3.33;;;5.70;99.90;;;;;;6241485;23;20337;-81
2022/11/22 09:32:55;;;;;;;14.73;3.78;;;5.70;99.90;;;;;;6241974;23;20004;-82
2022/11/22 09:35:21;;;;;;;13.63;4.53;;;5.80;99.90;;;;;;6242047;23;20547;-82
2022/11/22 09:37:46;;;;;;;12.88;4.20;;;5.80;99.90;;;;;;6241689;23;20012;-81
2022/11/22 09:40:13;;;;;;;11.85;3.30;;;5.80;99.90;;;;;;6241730;23;20016;-82
2022/11/22 09:43:01;;;;;;;15.80;3.03;;;5.90;99.90;;;;;;6241217;23;20016;-82
2022/11/22 09:45:36;;;;;;;13.93;3.55;;;5.90;99.90;;;;;;6241253;23;20087;-82
2022/11/22 09:48:13;;;;;;;10.00;3.38;;;5.90;99.90;;;;;;6242120;23;20008;-82
2022/11/22 09:51:03;;;;;;;11.38;2.42;;;5.90;99.90;;;;;;6241971;23;20012;-80
2022/11/22 09:53:34;;;;;;;11.13;3.15;;;6.00;99.90;;;;;;6241289;23;20395;-81
2022/11/22 09:56:03;;;;;;;23.75;4.22;;;6.00;99.90;;;;;;6241030;23;20054;-80
2022/11/22 09:58:45;;;;;;;22.73;3.08;;;6.00;99.90;;;;;;6241994;23;20031;-80
2022/11/22 10:01:16;;;;;;;18.67;3.67;;;6.00;99.90;;;;;;6240792;23;20341;-81
2022/11/22 10:03:54;;;;;;;24.58;3.22;;;6.10;99.90;;;;;;6241500;23;20008;-80
2022/11/22 10:06:26;;;;;;;13.13;3.78;;;6.10;99.90;;;;;;6241861;23;20310;-80
2022/11/22 10:09:10;;;;;;;15.60;3.22;;;6.10;99.90;;;;;;6241161;23;20445;-80
2022/11/22 10:11:57;;;;;;;12.18;2.50;;;6.20;99.90;;;;;;6241245;23;20012;-81
2022/11/22 10:14:45;;;;;;;16.13;3.25;;;6.20;99.90;;;;;;6213871;23;20391;-81
2022/11/22 10:17:22;;;;;;;16.55;2.95;;;6.30;99.90;;;;;;6241741;23;20009;-80
2022/11/22 10:20:00;;;;;;;12.40;2.60;;;6.30;99.90;;;;;;6241445;23;20012;-81
2022/11/22 10:22:29;;;;;;;10.43;2.25;;;6.30;99.90;;;;;;6214309;23;20342;-80
2022/11/22 10:24:57;;;;;;;10.75;3.03;;;6.40;99.90;;;;;;6240920;23;20048;-80
2022/11/22 10:27:25;;;;;;;14.77;2.88;;;6.40;99.90;;;;;;6241573;23;20015;-80
2022/11/22 10:29:58;;;;;;;8.85;2.30;;;6.40;99.90;;;;;;6240333;23;20455;-80
2022/11/22 10:32:48;;;;;;;9.48;2.40;;;6.40;99.90;;;;;;6241339;23;20016;-80
2022/11/22 10:35:20;;;;;;;21.88;3.75;;;6.40;99.90;;;;;;6241393;23;20471;-80
2022/11/22 10:38:03;;;;;;;21.35;2.78;;;6.40;99.90;;;;;;6241234;23;20016;-80
2022/11/22 10:40:49;;;;;;;10.65;2.60;;;6.50;99.90;;;;;;6240767;23;20019;-80
2022/11/22 10:43:49;;;;;;;9.57;2.78;;;6.40;99.90;;;;;;6213451;23;20102;-80
2022/11/22 10:46:43;;;;;;;6.82;2.20;;;6.50;99.90;;;;;;6213693;23;20346;-80
2022/11/22 10:49:34;;;;;;;9.30;1.80;;;6.60;99.90;;;;;;6214184;23;20103;-80
2022/11/22 10:52:32;;;;;;;9.90;2.35;;;6.60;99.90;;;;;;6241400;23;20298;-80
2022/11/22 10:55:21;;;;;;;10.68;2.10;;;6.60;99.90;;;;;;6240984;23;20016;-80
2022/11/22 10:57:55;;;;;;;12.75;2.17;;;6.70;99.90;;;;;;6213440;23;20070;-80
2022/11/22 11:00:25;;;;;;;;;;;6.70;99.90;;;;;;6241757;23;20069;-80
2022/11/22 11:03:03;;;;;;;10.48;2.45;;;6.70;99.90;;;;;;6241045;23;20316;-81
2022/11/22 11:05:52;;;;;;;9.98;1.67;;;6.70;99.90;;;;;;6241428;23;20016;-80
2022/11/22 11:08:39;;;;;;;7.60;1.70;;;6.80;99.90;;;;;;6213820;23;20012;-80
2022/11/22 11:11:05;;;;;;;9.30;1.70;;;6.90;99.90;;;;;;6239100;23;20062;-81
2022/11/22 11:13:44;;;;;;;5.22;1.40;;;7.20;99.90;;;;;;6240529;23;20333;-80
2022/11/22 11:16:16;;;;;;;8.57;1.90;;;7.10;99.90;;;;;;6213736;23;20501;-81
2022/11/22 11:19:23;;;;;;;9.95;2.05;;;7.10;99.90;;;;;;6213976;23;20102;-80
2022/11/22 11:22:07;;;;;;;11.63;1.85;;;7.20;99.90;;;;;;6173082;23;20027;-80
2022/11/22 11:24:37;;;;;;;9.00;1.60;;;7.20;99.90;;;;;;6240087;23;20514;-80
2022/11/22 11:27:02;;;;;;;9.63;1.40;;;7.20;99.90;;;;;;6240585;23;20012;-80
2022/11/22 11:29:49;;;;;;;5.05;1.40;;;7.20;99.90;;;;;;6240429;23;20018;-80
2022/11/22 11:32:18;;;;;;;10.55;1.60;;;7.20;99.90;;;;;;6240493;23;20016;-80
2022/11/22 11:34:53;;;;;;;8.98;1.50;;;7.20;99.90;;;;;;6240841;23;20356;-80
2022/11/22 11:37:25;;;;;;;7.43;1.58;;;7.20;99.90;;;;;;6213927;23;20436;-80
2022/11/22 11:39:51;;;;;;;7.35;1.77;;;7.20;99.90;;;;;;6213711;23;20012;-80
2022/11/22 11:42:26;;;;;;;8.90;1.73;;;7.10;99.90;;;;;;6239823;23;20619;-80
2022/11/22 11:44:52;;;;;;;8.80;1.60;;;7.10;99.90;;;;;;6240693;23;20016;-80
2022/11/22 11:47:30;;;;;;;6.30;1.15;;;7.20;99.90;;;;;;6213699;23;20043;-80
2022/11/22 11:49:56;;;;;;;7.38;2.13;;;7.20;99.90;;;;;;6213890;23;20516;-80
2022/11/22 11:52:22;;;;;;;8.55;1.33;;;7.10;99.90;;;;;;6240442;23;20056;-81
2022/11/22 11:54:52;;;;;;;8.50;2.20;;;7.20;99.90;;;;;;6240235;23;20046;-80
2022/11/22 11:57:25;;;;;;;7.88;2.80;;;7.10;99.90;;;;;;6212911;23;20447;-81
2022/11/22 11:59:52;;;;;;;8.50;3.00;;;7.20;99.90;;;;;;6241071;23;20083;-80
2022/11/22 12:02:22;;;;;;;12.85;1.85;;;7.20;99.90;;;;;;6236973;23;20008;-80
2022/11/22 12:04:56;;;;;;;7.13;2.17;;;7.20;99.90;;;;;;6237400;23;20012;-81
2022/11/22 12:07:26;;;;;;;10.75;3.10;;;7.30;99.90;;;;;;6240006;23;20012;-81
2022/11/22 12:09:55;;;;;;;6.82;2.15;;;7.30;99.90;;;;;;6212854;23;20020;-81
2022/11/22 12:12:31;;;;;;;11.52;2.22;;;7.30;99.90;;;;;;6240041;23;20091;-80
2022/11/22 12:15:06;;;;;;;6.97;1.67;;;7.30;99.90;;;;;;6213663;23;20016;-81
2022/11/22 12:17:40;;;;;;;9.27;2.08;;;7.30;99.90;;;;;;6213144;23;20093;-82
2022/11/22 12:20:14;;;;;;;11.55;1.92;;;7.40;99.90;;;;;;6240453;23;20114;-82
2022/11/22 12:22:54;;;;;;;8.38;1.60;;;7.40;99.90;;;;;;6240469;23;20008;-81
2022/11/22 12:25:28;;;;;;;9.40;1.83;;;7.40;99.90;;;;;;6239400;23;20093;-80
2022/11/22 12:27:54;;;;;;;6.00;2.13;;;7.30;99.90;;;;;;6239489;23;20012;-80
2022/11/22 12:30:21;;;;;;;7.82;1.60;;;7.40;99.90;;;;;;6240453;23;20099;-81
2022/11/22 12:32:59;;;;;;;9.05;1.60;;;7.40;99.90;;;;;;6240110;23;20640;-81
2022/11/22 12:35:26;;;;;;;5.93;1.77;;;7.50;99.90;;;;;;6213007;23;20028;-81
2022/11/22 12:37:53;;;;;;;8.02;1.70;;;7.40;99.90;;;;;;6240848;23;20016;-80
2022/11/22 12:40:36;;;;;;;11.15;2.10;;;7.40;99.90;;;;;;6212172;23;20062;-81
2022/11/22 12:43:09;;;;;;;7.80;1.15;;;7.50;99.90;;;;;;6187672;23;20032;-81
2022/11/22 12:45:40;;;;;;;7.88;1.50;;;7.50;99.90;;;;;;6240345;23;20044;-81
2022/11/22 12:48:14;;;;;;;8.65;1.80;;;7.50;99.90;;;;;;6240212;23;20019;-81
2022/11/22 12:50:48;;;;;;;6.95;1.58;;;7.50;99.90;;;;;;6240462;23;20008;-80
2022/11/22 12:53:14;;;;;;;6.82;1.38;;;7.50;99.90;;;;;;6240533;23;20090;-81
2022/11/22 12:55:49;;;;;;;6.75;1.40;;;7.50;99.90;;;;;;6213849;23;20031;-81
2022/11/22 12:58:48;;;;;;;12.32;1.27;;;7.50;99.90;;;;;;6213370;23;20092;-80
2022/11/22 13:01:36;;;;;;;8.85;1.23;;;7.50;99.90;;;;;;6213730;23;20027;-80
2022/11/22 13:04:08;;;;;;;5.28;1.33;;;7.60;99.90;;;;;;6239953;23;20023;-81
2022/11/22 13:06:55;;;;;;;9.55;1.90;;;7.60;99.90;;;;;;6240827;23;20082;-80
2022/11/22 13:09:33;;;;;;;7.65;1.15;;;7.50;99.90;;;;;;6240095;23;20010;-80